Time;durP1;ratioP1;P1;durP2;ratioP2;P2;SDS_P1;SDS_P2;PMS_P1;PMS_P2;Temp;Humidity;BMP_temperature;BMP_pressure;BME280_temperature;BME280_humidity;BME280_pressure;Samples;Min_cycle;Max_cycle;Signal;HPM_P1;HPM_P2
2024/01/19 00:02:07;;;;;;;55.87;32.77;;;;;;;;;;5055604;28;20416;-72
2024/01/19 00:04:33;;;;;;;53.17;31.47;;;;;;;;;;5055536;28;20241;-73
2024/01/19 00:06:59;;;;;;;43.13;29.90;;;;;;;;;;5037600;28;20190;-74
2024/01/19 00:09:25;;;;;;;47.57;31.90;;;;;;;;;;5055464;28;20460;-73
2024/01/19 00:11:51;;;;;;;45.87;30.60;;;;;;;;;;5055561;28;20920;-73
2024/01/19 00:14:17;;;;;;;50.23;33.17;;;;;;;;;;5055216;28;20515;-74
2024/01/19 00:16:43;;;;;;;49.27;31.73;;;;;;;;;;5055433;28;20224;-74
2024/01/19 00:19:09;;;;;;;50.17;31.97;;;;;;;;;;5037358;28;20179;-74
2024/01/19 00:21:41;;;;;;;46.37;30.97;;;;;;;;;;5055017;28;20693;-73
2024/01/19 00:24:08;;;;;;;47.07;31.77;;;;;;;;;;5036933;28;20435;-74
2024/01/19 00:26:33;;;;;;;48.40;30.23;;;;;;;;;;5037222;28;20432;-74
2024/01/19 00:28:59;;;;;;;45.33;30.73;;;;;;;;;;5055101;28;20779;-74
2024/01/19 00:31:26;;;;;;;50.13;31.30;;;;;;;;;;5036808;28;20665;-73
2024/01/19 00:33:52;;;;;;;46.37;31.53;;;;;;;;;;5054874;28;20749;-73
2024/01/19 00:36:18;;;;;;;55.27;33.27;;;;;;;;;;5037099;28;20406;-74
2024/01/19 00:38:44;;;;;;;54.53;33.47;;;;;;;;;;5054874;28;20182;-74
2024/01/19 00:41:10;;;;;;;54.60;33.37;;;;;;;;;;5054518;28;20463;-73
2024/01/19 00:43:36;;;;;;;48.53;34.40;;;;;;;;;;5054815;28;20901;-73
2024/01/19 00:46:03;;;;;;;57.50;32.83;;;;;;;;;;5036667;28;20175;-73
2024/01/19 00:48:29;;;;;;;51.67;34.07;;;;;;;;;;5036608;28;20202;-73
2024/01/19 00:50:55;;;;;;;55.37;34.27;;;;;;;;;;5038608;23;20814;-70
2024/01/19 00:53:21;;;;;;;52.37;35.33;;;;;;;;;;5013790;28;20413;-69
2024/01/19 00:55:47;;;;;;;48.87;33.80;;;;;;;;;;5014093;28;20419;-70
2024/01/19 00:58:15;;;;;;;50.03;31.47;;;;;;;;;;5014404;28;20547;-69
2024/01/19 01:00:41;;;;;;;56.13;34.23;;;;;;;;;;5013739;28;20215;-71
2024/01/19 01:03:07;;;;;;;49.60;32.53;;;;;;;;;;5013783;28;20421;-70
2024/01/19 01:05:34;;;;;;;56.87;33.87;;;;;;;;;;5015580;28;20257;-70
2024/01/19 01:08:00;;;;;;;61.27;34.07;;;;;;;;;;5015195;28;20405;-69
2024/01/19 01:10:25;;;;;;;58.87;35.63;;;;;;;;;;5013939;28;20453;-69
2024/01/19 01:12:51;;;;;;;65.10;36.77;;;;;;;;;;5013817;28;20411;-69
2024/01/19 01:15:17;;;;;;;61.37;35.17;;;;;;;;;;5027320;28;20573;-69
2024/01/19 01:17:43;;;;;;;63.10;34.60;;;;;;;;;;5029255;28;20423;-68
2024/01/19 01:20:10;;;;;;;62.87;37.20;;;;;;;;;;5030769;28;20242;-68
2024/01/19 01:22:37;;;;;;;68.07;35.57;;;;;;;;;;5025162;28;20523;-69
2024/01/19 01:25:03;;;;;;;60.27;35.53;;;;;;;;;;5017314;28;20414;-68
2024/01/19 01:27:29;;;;;;;64.27;35.67;;;;;;;;;;5014747;28;20412;-69
2024/01/19 01:29:55;;;;;;;77.13;38.10;;;;;;;;;;5014438;28;20414;-68
2024/01/19 01:32:21;;;;;;;75.77;41.70;;;;;;;;;;5014402;28;20423;-70
2024/01/19 01:34:47;;;;;;;72.93;38.80;;;;;;;;;;5013396;28;20186;-68
2024/01/19 01:37:13;;;;;;;73.30;38.77;;;;;;;;;;5013826;28;20187;-69
2024/01/19 01:39:39;;;;;;;64.57;36.73;;;;;;;;;;5013142;28;20186;-69
2024/01/19 01:42:05;;;;;;;69.80;39.67;;;;;;;;;;5014213;28;20205;-66
2024/01/19 01:44:31;;;;;;;69.47;38.83;;;;;;;;;;5013049;28;20178;-66
2024/01/19 01:46:57;;;;;;;64.47;36.13;;;;;;;;;;5011560;28;20508;-65
2024/01/19 01:49:23;;;;;;;64.37;38.70;;;;;;;;;;5011583;28;20183;-65
2024/01/19 01:51:49;;;;;;;67.13;38.37;;;;;;;;;;5011561;28;20568;-65
2024/01/19 01:54:15;;;;;;;71.97;37.97;;;;;;;;;;5011544;28;20473;-66
2024/01/19 01:56:41;;;;;;;65.20;37.37;;;;;;;;;;5011182;28;20426;-66
2024/01/19 01:59:08;;;;;;;63.60;36.80;;;;;;;;;;5013130;28;20490;-66
2024/01/19 02:01:34;;;;;;;70.20;37.30;;;;;;;;;;5011330;28;20532;-66
2024/01/19 02:04:00;;;;;;;72.43;37.77;;;;;;;;;;5012811;28;20409;-65
2024/01/19 02:06:28;;;;;;;74.13;36.50;;;;;;;;;;5011525;28;20509;-67
2024/01/19 02:08:54;;;;;;;68.53;34.40;;;;;;;;;;5012052;28;20936;-66
2024/01/19 02:11:20;;;;;;;70.27;36.53;;;;;;;;;;5011536;28;20446;-69
2024/01/19 02:13:46;;;;;;;74.00;38.13;;;;;;;;;;5012884;28;20509;-70
2024/01/19 02:16:12;;;;;;;74.50;36.87;;;;;;;;;;5012846;28;20187;-70
2024/01/19 02:18:38;;;;;;;64.77;35.60;;;;;;;;;;5011593;28;20663;-68
2024/01/19 02:21:05;;;;;;;81.00;37.17;;;;;;;;;;5012613;28;20530;-68
2024/01/19 02:23:35;;;;;;;75.73;38.70;;;;;;;;;;5013353;28;20569;-68
2024/01/19 02:26:02;;;;;;;84.47;40.33;;;;;;;;;;5013907;28;20388;-68
2024/01/19 02:28:28;;;;;;;79.20;36.47;;;;;;;;;;5011304;28;20420;-69
2024/01/19 02:30:54;;;;;;;81.43;37.03;;;;;;;;;;5011327;28;20799;-68
2024/01/19 02:33:20;;;;;;;76.27;37.37;;;;;;;;;;5012691;28;20253;-69
2024/01/19 02:35:45;;;;;;;71.30;33.93;;;;;;;;;;5011450;28;20183;-69
2024/01/19 02:38:11;;;;;;;80.77;38.57;;;;;;;;;;5012948;28;20179;-69
2024/01/19 02:40:37;;;;;;;81.03;39.37;;;;;;;;;;5012384;28;20210;-69
2024/01/19 02:43:03;;;;;;;78.70;35.87;;;;;;;;;;5012660;28;20175;-69
2024/01/19 02:45:29;;;;;;;81.33;38.17;;;;;;;;;;5011286;28;20187;-69
2024/01/19 02:47:55;;;;;;;84.57;39.23;;;;;;;;;;5012665;28;20418;-68
2024/01/19 02:50:21;;;;;;;92.73;38.57;;;;;;;;;;5012293;28;20262;-69
2024/01/19 02:52:47;;;;;;;87.67;36.33;;;;;;;;;;5012654;28;20191;-69
2024/01/19 02:55:14;;;;;;;83.17;38.03;;;;;;;;;;5012379;28;20180;-68
2024/01/19 02:57:40;;;;;;;82.77;36.83;;;;;;;;;;5013097;28;20533;-69
2024/01/19 03:00:07;;;;;;;96.37;40.87;;;;;;;;;;5012552;28;20474;-69
2024/01/19 03:02:33;;;;;;;96.67;41.40;;;;;;;;;;5012641;28;20550;-69
2024/01/19 03:04:59;;;;;;;96.17;38.20;;;;;;;;;;5012680;28;20478;-69
2024/01/19 03:07:25;;;;;;;93.00;40.60;;;;;;;;;;5012601;28;20176;-64
2024/01/19 03:09:51;;;;;;;95.07;38.70;;;;;;;;;;5013191;28;20187;-64
2024/01/19 03:12:18;;;;;;;103.37;40.13;;;;;;;;;;5016421;28;20176;-65
2024/01/19 03:14:44;;;;;;;99.77;38.17;;;;;;;;;;5015226;28;20697;-65
2024/01/19 03:17:10;;;;;;;80.43;37.30;;;;;;;;;;5016135;28;20419;-64
2024/01/19 03:19:36;;;;;;;90.43;36.80;;;;;;;;;;5015124;28;20226;-64
2024/01/19 03:22:02;;;;;;;88.90;37.40;;;;;;;;;;5016177;28;20518;-64
2024/01/19 03:24:29;;;;;;;91.97;38.90;;;;;;;;;;5016143;28;20439;-64
2024/01/19 03:26:55;;;;;;;87.20;36.77;;;;;;;;;;5016079;28;20168;-64
2024/01/19 03:29:22;;;;;;;85.47;36.77;;;;;;;;;;5016365;28;20419;-65
2024/01/19 03:31:48;;;;;;;85.77;37.10;;;;;;;;;;5015968;28;20222;-64
2024/01/19 03:34:14;;;;;;;86.83;36.17;;;;;;;;;;5015803;28;20411;-64
2024/01/19 03:36:40;;;;;;;85.00;38.10;;;;;;;;;;5014262;28;20240;-64
2024/01/19 03:39:06;;;;;;;94.40;37.30;;;;;;;;;;5014133;28;20180;-64
2024/01/19 03:41:32;;;;;;;81.43;36.83;;;;;;;;;;5015649;28;20582;-65
2024/01/19 03:43:58;;;;;;;88.73;37.73;;;;;;;;;;5015302;28;20411;-66
2024/01/19 03:46:24;;;;;;;86.43;36.87;;;;;;;;;;5015137;28;20183;-66
2024/01/19 03:48:50;;;;;;;82.03;35.47;;;;;;;;;;5013706;28;20187;-66
2024/01/19 03:51:16;;;;;;;86.40;36.83;;;;;;;;;;5014894;28;20227;-65
2024/01/19 03:53:46;;;;;;;88.00;35.77;;;;;;;;;;5015469;28;20179;-65
2024/01/19 03:56:12;;;;;;;80.17;34.63;;;;;;;;;;5015420;28;20184;-65
2024/01/19 03:58:38;;;;;;;88.87;38.23;;;;;;;;;;5013615;28;20434;-66
2024/01/19 04:01:06;;;;;;;79.87;34.13;;;;;;;;;;5014712;28;20472;-66
2024/01/19 04:03:32;;;;;;;88.03;37.93;;;;;;;;;;5015066;28;20642;-66
2024/01/19 04:05:58;;;;;;;86.60;36.87;;;;;;;;;;5014778;28;20782;-66
2024/01/19 04:08:24;;;;;;;84.93;37.03;;;;;;;;;;5014719;28;20411;-66
2024/01/19 04:10:49;;;;;;;79.67;36.97;;;;;;;;;;5013321;28;20222;-66
2024/01/19 04:13:16;;;;;;;80.70;35.63;;;;;;;;;;5013247;28;20660;-66
2024/01/19 04:15:42;;;;;;;77.63;33.10;;;;;;;;;;5015709;28;20213;-66
2024/01/19 04:18:08;;;;;;;79.53;35.47;;;;;;;;;;5014732;28;20469;-66
2024/01/19 04:20:34;;;;;;;77.23;34.70;;;;;;;;;;5012620;28;20234;-66
2024/01/19 04:23:00;;;;;;;74.40;34.53;;;;;;;;;;5014414;28;20203;-66
2024/01/19 04:25:26;;;;;;;75.10;34.47;;;;;;;;;;5014867;28;20176;-66
2024/01/19 04:27:52;;;;;;;74.77;34.80;;;;;;;;;;5014453;28;20180;-66
2024/01/19 04:30:18;;;;;;;80.67;34.83;;;;;;;;;;5012842;28;20291;-66
2024/01/19 04:32:44;;;;;;;73.97;33.07;;;;;;;;;;5014207;28;20426;-65
2024/01/19 04:35:10;;;;;;;84.50;32.83;;;;;;;;;;5014161;28;20419;-67
2024/01/19 04:37:35;;;;;;;84.53;35.10;;;;;;;;;;5014439;28;20230;-66
2024/01/19 04:40:01;;;;;;;73.57;34.00;;;;;;;;;;5014216;28;20224;-65
2024/01/19 04:42:27;;;;;;;84.30;33.80;;;;;;;;;;5014287;28;20210;-65
2024/01/19 04:44:53;;;;;;;73.03;35.80;;;;;;;;;;5014451;28;20553;-65
2024/01/19 04:47:19;;;;;;;79.10;35.27;;;;;;;;;;5013957;28;20188;-66
2024/01/19 04:49:45;;;;;;;79.07;33.73;;;;;;;;;;5013862;28;20176;-66
2024/01/19 04:52:11;;;;;;;87.00;33.77;;;;;;;;;;5012422;28;20192;-65
2024/01/19 04:54:37;;;;;;;76.00;33.37;;;;;;;;;;5013782;28;20528;-66
2024/01/19 04:57:03;;;;;;;80.37;35.70;;;;;;;;;;5013999;28;20542;-66
2024/01/19 04:59:29;;;;;;;79.87;32.87;;;;;;;;;;5013904;28;20183;-65
2024/01/19 05:01:55;;;;;;;75.83;34.37;;;;;;;;;;5013544;28;20497;-65
2024/01/19 05:04:22;;;;;;;84.93;35.30;;;;;;;;;;5013643;28;20407;-65
2024/01/19 05:06:48;;;;;;;82.97;35.23;;;;;;;;;;5013731;28;20490;-65
2024/01/19 05:09:14;;;;;;;74.63;34.27;;;;;;;;;;5013459;28;20451;-65
2024/01/19 05:11:40;;;;;;;77.87;34.67;;;;;;;;;;5013477;28;20226;-65
2024/01/19 05:14:06;;;;;;;82.47;35.07;;;;;;;;;;5013414;28;20848;-65
2024/01/19 05:16:32;;;;;;;73.80;31.10;;;;;;;;;;5013518;28;20186;-66
2024/01/19 05:18:58;;;;;;;86.83;36.00;;;;;;;;;;5013283;28;20943;-66
2024/01/19 05:21:24;;;;;;;80.20;35.20;;;;;;;;;;5013112;28;20458;-65
2024/01/19 05:23:50;;;;;;;77.10;33.60;;;;;;;;;;5013736;28;20528;-65
2024/01/19 05:26:16;;;;;;;82.87;36.47;;;;;;;;;;5013857;28;20627;-66
2024/01/19 05:28:42;;;;;;;81.10;34.87;;;;;;;;;;5013720;28;20668;-65
2024/01/19 05:31:08;;;;;;;75.20;34.73;;;;;;;;;;5011805;28;20295;-66
2024/01/19 05:33:34;;;;;;;83.03;36.53;;;;;;;;;;5013549;28;20549;-64
2024/01/19 05:36:01;;;;;;;74.50;32.27;;;;;;;;;;5013613;28;20184;-65
2024/01/19 05:38:27;;;;;;;73.87;35.77;;;;;;;;;;5014949;28;20429;-65
2024/01/19 05:40:53;;;;;;;80.80;34.60;;;;;;;;;;5015631;28;20835;-65
2024/01/19 05:43:19;;;;;;;72.50;34.03;;;;;;;;;;5017130;28;20407;-65
2024/01/19 05:45:45;;;;;;;83.50;36.70;;;;;;;;;;5014614;28;20182;-66
2024/01/19 05:48:11;;;;;;;85.53;36.37;;;;;;;;;;5016114;28;20195;-65
2024/01/19 05:50:37;;;;;;;74.03;36.63;;;;;;;;;;5015790;28;20219;-65
2024/01/19 05:53:03;;;;;;;70.47;36.50;;;;;;;;;;5015704;28;20206;-65
2024/01/19 05:55:29;;;;;;;80.50;35.83;;;;;;;;;;5011696;28;20476;-66
2024/01/19 05:57:55;;;;;;;71.73;36.10;;;;;;;;;;5012796;28;20419;-66
2024/01/19 06:00:21;;;;;;;84.10;36.73;;;;;;;;;;5012771;28;20287;-66
2024/01/19 06:02:47;;;;;;;80.40;36.10;;;;;;;;;;5011461;28;20179;-66
2024/01/19 06:05:13;;;;;;;82.57;36.30;;;;;;;;;;5011521;28;20186;-65
2024/01/19 06:07:39;;;;;;;73.93;34.07;;;;;;;;;;5011579;28;20183;-66
2024/01/19 06:10:05;;;;;;;79.10;38.03;;;;;;;;;;5012905;28;20200;-65
2024/01/19 06:12:31;;;;;;;75.67;34.70;;;;;;;;;;5012846;28;20831;-66
2024/01/19 06:14:57;;;;;;;82.20;36.73;;;;;;;;;;5012629;28;20418;-65
2024/01/19 06:17:23;;;;;;;66.40;35.10;;;;;;;;;;5013156;28;20516;-65
2024/01/19 06:19:49;;;;;;;72.07;35.43;;;;;;;;;;5011408;28;20180;-65
2024/01/19 06:22:15;;;;;;;66.43;32.53;;;;;;;;;;5012524;28;20176;-65
2024/01/19 06:24:41;;;;;;;71.60;36.27;;;;;;;;;;5012522;28;20180;-65
2024/01/19 06:27:07;;;;;;;84.77;37.50;;;;;;;;;;5012540;28;20469;-66
2024/01/19 06:29:33;;;;;;;71.90;35.20;;;;;;;;;;5012773;28;20398;-66
2024/01/19 06:31:59;;;;;;;65.73;34.77;;;;;;;;;;5012426;28;20204;-65
2024/01/19 06:34:26;;;;;;;65.07;34.03;;;;;;;;;;5011205;28;20414;-65
2024/01/19 06:36:52;;;;;;;65.47;33.00;;;;;;;;;;5012565;28;20526;-65
2024/01/19 06:39:18;;;;;;;65.07;33.60;;;;;;;;;;5012668;28;20435;-65
2024/01/19 06:41:44;;;;;;;63.63;32.83;;;;;;;;;;5012243;28;20678;-65
2024/01/19 06:44:11;;;;;;;64.60;34.00;;;;;;;;;;5013920;28;20179;-66
2024/01/19 06:46:37;;;;;;;62.07;32.80;;;;;;;;;;5016509;28;20494;-66
2024/01/19 06:49:03;;;;;;;70.33;35.23;;;;;;;;;;5014928;28;20403;-66
2024/01/19 06:51:29;;;;;;;64.97;34.53;;;;;;;;;;5015949;28;20469;-66
2024/01/19 06:53:56;;;;;;;64.13;33.03;;;;;;;;;;5015066;28;20279;-66
2024/01/19 06:56:22;;;;;;;63.37;34.70;;;;;;;;;;5016155;28;20183;-66
2024/01/19 06:58:48;;;;;;;66.57;38.57;;;;;;;;;;5016077;28;20417;-66
2024/01/19 07:01:14;;;;;;;67.37;33.40;;;;;;;;;;5015877;28;20215;-65
2024/01/19 07:03:40;;;;;;;62.87;34.13;;;;;;;;;;5014600;28;20271;-65
2024/01/19 07:06:06;;;;;;;69.93;34.97;;;;;;;;;;5014576;28;20180;-66
2024/01/19 07:08:32;;;;;;;60.40;33.63;;;;;;;;;;5015847;28;20172;-65
2024/01/19 07:10:58;;;;;;;54.97;31.80;;;;;;;;;;5015934;28;20195;-65
2024/01/19 07:13:24;;;;;;;53.47;30.33;;;;;;;;;;5016008;28;20175;-66
2024/01/19 07:15:50;;;;;;;66.63;36.13;;;;;;;;;;5015904;28;20180;-66
2024/01/19 07:18:15;;;;;;;58.10;31.47;;;;;;;;;;5014514;28;20215;-66
2024/01/19 07:20:42;;;;;;;57.40;33.63;;;;;;;;;;5015656;28;20203;-64
2024/01/19 07:23:08;;;;;;;68.57;33.53;;;;;;;;;;5015969;28;20281;-65
2024/01/19 07:25:35;;;;;;;59.60;35.03;;;;;;;;;;5015890;28;20835;-66
2024/01/19 07:28:01;;;;;;;61.37;33.03;;;;;;;;;;5015594;28;20168;-66
2024/01/19 07:30:27;;;;;;;57.60;31.57;;;;;;;;;;5015432;28;20994;-65
2024/01/19 07:32:53;;;;;;;60.97;34.63;;;;;;;;;;5015621;28;20893;-65
2024/01/19 07:35:19;;;;;;;63.13;33.73;;;;;;;;;;5015520;28;20420;-65
2024/01/19 07:37:45;;;;;;;56.37;32.90;;;;;;;;;;5015271;28;20552;-65
2024/01/19 07:40:11;;;;;;;53.00;31.40;;;;;;;;;;5015393;28;20867;-66
2024/01/19 07:42:37;;;;;;;53.33;31.53;;;;;;;;;;5015198;28;20410;-65
2024/01/19 07:45:03;;;;;;;61.20;32.77;;;;;;;;;;5013834;28;20795;-65
2024/01/19 07:47:32;;;;;;;57.83;31.80;;;;;;;;;;5015028;28;20211;-65
2024/01/19 07:49:58;;;;;;;51.27;31.30;;;;;;;;;;5015130;28;20488;-66
2024/01/19 07:52:24;;;;;;;54.90;32.07;;;;;;;;;;5013701;28;20506;-66
2024/01/19 07:54:49;;;;;;;52.87;30.43;;;;;;;;;;5014317;28;20235;-66
2024/01/19 07:57:15;;;;;;;56.57;32.87;;;;;;;;;;5014953;28;20184;-66
2024/01/19 07:59:43;;;;;;;54.57;32.57;;;;;;;;;;5014781;28;20180;-67
2024/01/19 08:02:09;;;;;;;56.83;32.30;;;;;;;;;;5013454;28;20214;-65
2024/01/19 08:04:35;;;;;;;56.93;33.27;;;;;;;;;;5014876;28;20411;-66
2024/01/19 08:07:02;;;;;;;55.03;32.73;;;;;;;;;;5014827;28;20255;-65
2024/01/19 08:09:28;;;;;;;52.23;31.20;;;;;;;;;;5015253;28;20403;-65
2024/01/19 08:11:53;;;;;;;52.47;29.87;;;;;;;;;;5014979;28;20838;-66
2024/01/19 08:14:20;;;;;;;57.20;31.10;;;;;;;;;;5015092;28;20712;-65
2024/01/19 08:16:46;;;;;;;51.87;31.50;;;;;;;;;;5016161;28;20171;-65
2024/01/19 08:19:12;;;;;;;54.40;32.77;;;;;;;;;;5015082;28;20418;-65
2024/01/19 08:21:44;;;;;;;53.53;33.27;;;;;;;;;;5014502;28;20239;-64
2024/01/19 08:24:12;;;;;;;59.13;33.10;;;;;;;;;;5013249;28;20665;-65
2024/01/19 08:26:38;;;;;;;53.37;31.73;;;;;;;;;;5014930;28;20426;-65
2024/01/19 08:29:04;;;;;;;58.00;34.20;;;;;;;;;;5014598;28;20403;-64
2024/01/19 08:31:32;;;;;;;55.77;31.87;;;;;;;;;;5013174;28;20207;-65
2024/01/19 08:33:58;;;;;;;57.50;33.07;;;;;;;;;;5014549;28;20683;-65
2024/01/19 08:36:24;;;;;;;57.30;32.97;;;;;;;;;;5014889;28;20419;-65
2024/01/19 08:38:51;;;;;;;52.70;31.67;;;;;;;;;;5014193;28;20616;-65
2024/01/19 08:41:17;;;;;;;54.17;32.37;;;;;;;;;;5014217;28;20212;-65
2024/01/19 08:43:43;;;;;;;52.60;31.47;;;;;;;;;;5014518;28;20422;-66
2024/01/19 08:46:09;;;;;;;49.73;31.13;;;;;;;;;;5014190;28;20848;-66
2024/01/19 08:48:34;;;;;;;54.50;33.47;;;;;;;;;;5042906;23;20716;-71
2024/01/19 08:51:01;;;;;;;55.37;32.13;;;;;;;;;;5025719;28;20176;-71
2024/01/19 08:53:27;;;;;;;56.20;30.83;;;;;;;;;;5024457;28;20179;-72
2024/01/19 08:55:53;;;;;;;53.30;30.57;;;;;;;;;;5021127;28;20422;-71
2024/01/19 08:58:20;;;;;;;47.80;29.20;;;;;;;;;;5020644;28;20435;-71
2024/01/19 09:00:46;;;;;;;55.00;33.43;;;;;;;;;;5021608;28;20462;-72
2024/01/19 09:03:12;;;;;;;48.13;29.93;;;;;;;;;;5017681;28;20810;-71
2024/01/19 09:05:37;;;;;;;52.07;30.63;;;;;;;;;;5016403;28;20184;-72
2024/01/19 09:08:04;;;;;;;58.57;33.00;;;;;;;;;;5016814;28;20439;-72
2024/01/19 09:10:30;;;;;;;53.87;33.57;;;;;;;;;;5016623;28;20720;-71
2024/01/19 09:12:56;;;;;;;51.43;29.97;;;;;;;;;;5014401;28;20427;-72
2024/01/19 09:15:22;;;;;;;55.70;34.73;;;;;;;;;;5014406;28;20203;-71
2024/01/19 09:17:48;;;;;;;51.43;30.20;;;;;;;;;;5015987;28;20278;-71
2024/01/19 09:20:14;;;;;;;50.00;31.23;;;;;;;;;;5016148;28;20466;-71
2024/01/19 09:22:40;;;;;;;56.77;33.47;;;;;;;;;;5016257;28;20182;-71
2024/01/19 09:25:07;;;;;;;47.03;29.37;;;;;;;;;;5014933;28;20941;-71
2024/01/19 09:27:33;;;;;;;83.90;46.40;;;;;;;;;;5027872;28;20445;-72
2024/01/19 09:29:59;;;;;;;46.50;29.27;;;;;;;;;;5030808;28;20407;-72
2024/01/19 09:32:25;;;;;;;54.90;31.03;;;;;;;;;;5030663;28;20187;-71
2024/01/19 09:34:51;;;;;;;45.53;28.37;;;;;;;;;;5026945;28;20247;-71
2024/01/19 09:37:17;;;;;;;54.30;31.90;;;;;;;;;;5024837;28;20227;-72
2024/01/19 09:39:43;;;;;;;61.80;36.00;;;;;;;;;;5026424;28;20411;-71
2024/01/19 09:42:17;;;;;;;46.00;29.30;;;;;;;;;;5024335;28;20237;-70
2024/01/19 09:44:49;;;;;;;45.50;28.73;;;;;;;;;;5015979;28;20877;-71
2024/01/19 09:47:22;;;;;;;51.93;31.17;;;;;;;;;;5016144;28;20921;-71
2024/01/19 09:49:57;;;;;;;44.30;26.00;;;;;;;;;;5014551;28;20447;-71
2024/01/19 09:52:43;;;;;;;73.57;42.57;;;;;;;;;;5015375;28;20402;-71
2024/01/19 09:55:10;;;;;;;42.47;25.93;;;;;;;;;;5015311;28;20400;-71
2024/01/19 09:57:39;;;;;;;44.20;24.90;;;;;;;;;;5019122;28;20440;-71
2024/01/19 10:00:06;;;;;;;42.70;25.37;;;;;;;;;;5015284;28;20538;-71
2024/01/19 10:02:32;;;;;;;40.97;24.73;;;;;;;;;;5015214;28;20187;-71
2024/01/19 10:04:59;;;;;;;45.20;26.33;;;;;;;;;;5015233;28;20418;-71
2024/01/19 10:07:26;;;;;;;37.90;23.70;;;;;;;;;;5014706;28;20426;-71
2024/01/19 10:09:52;;;;;;;39.50;22.87;;;;;;;;;;5013674;28;20450;-71
2024/01/19 10:12:19;;;;;;;40.20;26.70;;;;;;;;;;5013981;28;20470;-71
2024/01/19 10:14:45;;;;;;;38.63;24.57;;;;;;;;;;5015208;28;20407;-71
2024/01/19 10:17:11;;;;;;;37.07;24.73;;;;;;;;;;5013891;28;20970;-71
2024/01/19 10:19:38;;;;;;;33.63;22.53;;;;;;;;;;5017631;28;20176;-71
2024/01/19 10:22:25;;;;;;;35.07;21.07;;;;;;;;;;5017616;28;20498;-71
2024/01/19 10:25:01;;;;;;;39.77;25.93;;;;;;;;;;5019475;28;20422;-71
2024/01/19 10:27:38;;;;;;;40.03;25.03;;;;;;;;;;5017696;28;21008;-71
2024/01/19 10:30:24;;;;;;;33.13;22.27;;;;;;;;;;5019688;28;20540;-71
2024/01/19 10:32:51;;;;;;;38.50;21.60;;;;;;;;;;5019108;28;20402;-71
2024/01/19 10:35:19;;;;;;;35.27;23.73;;;;;;;;;;5018975;28;20889;-71
2024/01/19 10:37:45;;;;;;;32.63;21.37;;;;;;;;;;5020203;28;20427;-71
2024/01/19 10:40:14;;;;;;;36.37;22.70;;;;;;;;;;5018987;28;20423;-71
2024/01/19 10:42:40;;;;;;;33.93;22.10;;;;;;;;;;5020405;28;20498;-71
2024/01/19 10:45:17;;;;;;;30.43;21.00;;;;;;;;;;5021072;28;20406;-71
2024/01/19 10:47:43;;;;;;;33.73;22.40;;;;;;;;;;5021062;28;20457;-71
2024/01/19 10:50:12;;;;;;;36.50;21.97;;;;;;;;;;5028208;28;20180;-72
2024/01/19 10:52:39;;;;;;;37.00;23.30;;;;;;;;;;5022630;28;20411;-71
2024/01/19 10:55:05;;;;;;;36.13;24.33;;;;;;;;;;5018963;28;20421;-71
2024/01/19 10:57:31;;;;;;;38.90;23.63;;;;;;;;;;5021548;28;20199;-71
2024/01/19 10:59:57;;;;;;;37.27;23.67;;;;;;;;;;5021366;28;20407;-71
2024/01/19 11:02:24;;;;;;;34.27;21.80;;;;;;;;;;5023065;28;20179;-71
2024/01/19 11:04:51;;;;;;;36.23;23.03;;;;;;;;;;5021844;28;20184;-71
2024/01/19 11:07:17;;;;;;;35.03;23.07;;;;;;;;;;5021706;28;20796;-71
2024/01/19 11:09:43;;;;;;;33.47;21.53;;;;;;;;;;5022514;28;20431;-71
2024/01/19 11:12:11;;;;;;;35.97;24.23;;;;;;;;;;5017068;28;20197;-71
2024/01/19 11:14:38;;;;;;;38.10;25.00;;;;;;;;;;5017411;28;20770;-71
2024/01/19 11:17:04;;;;;;;34.33;23.37;;;;;;;;;;5017180;28;20474;-71
2024/01/19 11:19:31;;;;;;;36.60;23.40;;;;;;;;;;5015798;28;20465;-71
2024/01/19 11:21:57;;;;;;;40.67;24.97;;;;;;;;;;5016818;28;20200;-71
2024/01/19 11:24:24;;;;;;;40.33;25.47;;;;;;;;;;5017576;28;20176;-71
2024/01/19 11:26:56;;;;;;;38.97;26.80;;;;;;;;;;5017717;28;20777;-72
2024/01/19 11:29:25;;;;;;;36.87;24.90;;;;;;;;;;5014395;28;20415;-71
2024/01/19 11:31:52;;;;;;;38.13;22.30;;;;;;;;;;5017431;28;20422;-71
2024/01/19 11:34:36;;;;;;;34.87;22.63;;;;;;;;;;5016730;28;20411;-71
2024/01/19 11:37:03;;;;;;;35.63;23.07;;;;;;;;;;5015652;28;20840;-71
2024/01/19 11:39:42;;;;;;;36.63;23.73;;;;;;;;;;5015499;28;20188;-71
2024/01/19 11:42:27;;;;;;;34.57;23.57;;;;;;;;;;5018838;28;20497;-71
2024/01/19 11:44:53;;;;;;;33.70;22.80;;;;;;;;;;5016946;28;20179;-71
2024/01/19 11:47:40;;;;;;;36.07;23.53;;;;;;;;;;5016757;28;20454;-71
2024/01/19 11:50:07;;;;;;;42.10;25.70;;;;;;;;;;5015657;28;20168;-71
2024/01/19 11:52:37;;;;;;;43.07;25.67;;;;;;;;;;5016486;28;20245;-71
2024/01/19 11:55:22;;;;;;;36.70;23.77;;;;;;;;;;5016971;28;20183;-71
2024/01/19 11:57:47;;;;;;;41.83;23.73;;;;;;;;;;5016333;28;20286;-72
2024/01/19 12:00:14;;;;;;;36.10;22.60;;;;;;;;;;5016435;28;20212;-71
2024/01/19 12:02:41;;;;;;;35.17;22.53;;;;;;;;;;5016319;28;20175;-72
2024/01/19 12:05:07;;;;;;;34.57;22.10;;;;;;;;;;5017758;28;20179;-71
2024/01/19 12:07:34;;;;;;;29.13;18.03;;;;;;;;;;5016275;28;20199;-71
2024/01/19 12:10:06;;;;;;;35.53;24.13;;;;;;;;;;5016271;28;20255;-71
2024/01/19 12:12:33;;;;;;;35.63;23.63;;;;;;;;;;5014750;28;20191;-71
2024/01/19 12:14:59;;;;;;;37.47;23.47;;;;;;;;;;5014715;28;20538;-71
2024/01/19 12:17:25;;;;;;;32.07;21.80;;;;;;;;;;5016068;28;20946;-71
2024/01/19 12:19:54;;;;;;;34.03;22.50;;;;;;;;;;5015267;28;20183;-71
2024/01/19 12:22:20;;;;;;;53.27;32.23;;;;;;;;;;5014535;28;20262;-71
2024/01/19 12:24:46;;;;;;;40.10;25.27;;;;;;;;;;5014481;28;20260;-71
2024/01/19 12:27:19;;;;;;;39.27;22.43;;;;;;;;;;5015792;28;20203;-71
2024/01/19 12:29:45;;;;;;;45.43;26.07;;;;;;;;;;5015619;28;20176;-71
2024/01/19 12:32:12;;;;;;;37.20;23.27;;;;;;;;;;5015765;28;20422;-71
2024/01/19 12:34:38;;;;;;;40.73;27.07;;;;;;;;;;5018655;28;20591;-71
2024/01/19 12:37:04;;;;;;;31.20;18.40;;;;;;;;;;5016112;28;20184;-71
2024/01/19 12:39:30;;;;;;;34.97;21.63;;;;;;;;;;5016718;28;20176;-71
2024/01/19 12:42:00;;;;;;;42.87;23.67;;;;;;;;;;5016416;28;20213;-71
2024/01/19 12:44:26;;;;;;;33.50;22.00;;;;;;;;;;5015622;28;20302;-71
2024/01/19 12:46:52;;;;;;;40.93;24.93;;;;;;;;;;5015585;28;20553;-71
2024/01/19 12:49:18;;;;;;;36.83;23.47;;;;;;;;;;5016271;28;20204;-71
2024/01/19 12:51:44;;;;;;;36.70;22.47;;;;;;;;;;5015513;28;20176;-72
2024/01/19 12:54:14;;;;;;;32.73;21.37;;;;;;;;;;5014098;28;20650;-71
2024/01/19 12:56:40;;;;;;;36.80;21.30;;;;;;;;;;5014378;28;20176;-71
2024/01/19 12:59:07;;;;;;;33.50;20.67;;;;;;;;;;5014396;28;20700;-71
2024/01/19 13:01:34;;;;;;;31.40;20.00;;;;;;;;;;5015365;28;20579;-71
2024/01/19 13:04:00;;;;;;;34.47;20.33;;;;;;;;;;5014374;28;20176;-71
2024/01/19 13:06:26;;;;;;;39.03;22.40;;;;;;;;;;5014424;28;20176;-71
2024/01/19 13:08:53;;;;;;;27.37;16.03;;;;;;;;;;5015285;28;20202;-72
2024/01/19 13:11:22;;;;;;;31.13;19.83;;;;;;;;;;5013919;28;20187;-71
2024/01/19 13:13:59;;;;;;;37.73;22.53;;;;;;;;;;5015726;28;20180;-71
2024/01/19 13:16:25;;;;;;;43.13;24.67;;;;;;;;;;5015161;28;20182;-70
2024/01/19 13:18:59;;;;;;;33.93;19.87;;;;;;;;;;5015407;28;20204;-70
2024/01/19 13:21:25;;;;;;;48.87;29.63;;;;;;;;;;5014365;28;20195;-70
2024/01/19 13:23:51;;;;;;;34.97;22.13;;;;;;;;;;5014801;28;20182;-71
2024/01/19 13:26:19;;;;;;;36.47;20.57;;;;;;;;;;5018658;28;20650;-71
2024/01/19 13:28:45;;;;;;;33.33;19.80;;;;;;;;;;5015864;28;20686;-71
2024/01/19 13:31:11;;;;;;;38.33;24.63;;;;;;;;;;5013998;28;20176;-70
2024/01/19 13:33:38;;;;;;;33.63;20.00;;;;;;;;;;5015401;28;20184;-71
2024/01/19 13:36:05;;;;;;;32.80;20.03;;;;;;;;;;5013529;28;20184;-71
2024/01/19 13:38:31;;;;;;;39.30;25.53;;;;;;;;;;5013542;28;20240;-70
2024/01/19 13:40:57;;;;;;;31.17;19.80;;;;;;;;;;5014779;28;20227;-71
2024/01/19 13:43:23;;;;;;;35.97;20.27;;;;;;;;;;5013424;28;20180;-71
2024/01/19 13:45:48;;;;;;;32.77;20.97;;;;;;;;;;5014004;28;20183;-70
2024/01/19 13:48:17;;;;;;;34.53;19.27;;;;;;;;;;5014411;28;20211;-70
2024/01/19 13:50:43;;;;;;;34.37;21.30;;;;;;;;;;5014089;28;20185;-71
2024/01/19 13:53:09;;;;;;;39.27;23.70;;;;;;;;;;5014074;28;20687;-71
2024/01/19 13:55:35;;;;;;;32.17;19.30;;;;;;;;;;5016467;28;20190;-71
2024/01/19 13:58:01;;;;;;;37.67;20.37;;;;;;;;;;5026475;28;20382;-71
2024/01/19 14:00:27;;;;;;;39.50;22.27;;;;;;;;;;5028360;28;20199;-71
2024/01/19 14:02:53;;;;;;;42.93;23.80;;;;;;;;;;5025285;28;20183;-71
2024/01/19 14:05:19;;;;;;;33.30;18.50;;;;;;;;;;5018247;28;20176;-71
2024/01/19 14:07:45;;;;;;;44.40;26.63;;;;;;;;;;5014371;28;20200;-71
2024/01/19 14:10:11;;;;;;;31.30;17.03;;;;;;;;;;5013211;28;20258;-71
2024/01/19 14:12:37;;;;;;;30.97;19.07;;;;;;;;;;5014506;28;20176;-71
2024/01/19 14:15:04;;;;;;;55.10;31.50;;;;;;;;;;5013601;28;20184;-71